Time;durP1;ratioP1;P1;durP2;ratioP2;P2;SDS_P1;SDS_P2;PMS_P1;PMS_P2;Temp;Humidity;BMP_temperature;BMP_pressure;BME280_temperature;BME280_humidity;BME280_pressure;Samples;Min_cycle;Max_cycle;Signal;HPM_P1;HPM_P2
2023/05/21 00:00:19;;;;;;;;;19.33;14.33;;;;;19.10;50.40;101158.44;5074502;28;45434;-68
2023/05/21 00:02:45;;;;;;;;;13.33;11.00;;;;;19.05;50.46;101151.50;5055382;28;47829;-66
2023/05/21 00:05:12;;;;;;;;;14.33;14.33;;;;;19.10;50.56;101161.09;5055872;28;46742;-66
2023/05/21 00:07:37;;;;;;;;;13.33;13.00;;;;;19.09;50.67;101156.72;5058485;28;45471;-73
2023/05/21 00:10:05;;;;;;;;;14.00;12.67;;;;;19.01;50.75;101152.47;5058038;28;45465;-77
2023/05/21 00:12:31;;;;;;;;;16.00;13.00;;;;;19.09;52.63;101164.66;5056117;28;47629;-69
2023/05/21 00:14:57;;;;;;;;;13.00;12.00;;;;;19.01;52.79;101151.63;5078120;28;45275;-70
2023/05/21 00:17:24;;;;;;;;;16.67;14.67;;;;;19.16;51.80;101160.94;5074905;27;45516;-69
2023/05/21 00:19:51;;;;;;;;;16.33;12.33;;;;;19.07;52.29;101138.16;5056592;28;45375;-76
2023/05/21 00:22:16;;;;;;;;;11.00;11.00;;;;;19.16;51.59;101142.34;5074225;28;45775;-71
2023/05/21 00:24:44;;;;;;;;;13.67;13.67;;;;;19.00;51.29;101118.00;5055792;28;45466;-66
2023/05/21 00:27:11;;;;;;;;;12.00;12.00;;;;;19.13;50.85;101138.00;5059617;28;45441;-71
2023/05/21 00:29:36;;;;;;;;;14.33;12.33;;;;;19.13;50.89;101150.41;5078693;28;45461;-70
2023/05/21 00:32:02;;;;;;;;;10.00;9.33;;;;;19.08;50.96;101145.22;5078283;28;45321;-71
2023/05/21 00:34:28;;;;;;;;;15.33;14.67;;;;;19.01;51.15;101139.19;5060321;28;45325;-72
2023/05/21 00:36:54;;;;;;;;;14.67;10.00;;;;;19.02;50.92;101146.25;5057695;28;45763;-71
2023/05/21 00:39:20;;;;;;;;;12.33;11.00;;;;;19.05;51.19;101142.63;5074448;28;45672;-73
2023/05/21 00:41:47;;;;;;;;;16.33;12.00;;;;;18.99;50.85;101137.50;5073869;28;45459;-72
2023/05/21 00:44:13;;;;;;;;;16.33;14.00;;;;;19.00;51.17;101142.75;5074855;28;45500;-70
2023/05/21 00:46:40;;;;;;;;;14.00;13.33;;;;;18.91;51.71;101123.53;5078634;28;45341;-70
2023/05/21 00:49:06;;;;;;;;;12.33;12.33;;;;;18.91;51.32;101129.75;5060431;28;45422;-71
2023/05/21 00:51:32;;;;;;;;;15.67;13.00;;;;;18.92;51.14;101127.97;5077996;28;45961;-71
2023/05/21 00:54:01;;;;;;;;;16.33;13.00;;;;;18.91;51.85;101119.13;5078136;28;46628;-73
2023/05/21 00:56:27;;;;;;;;;15.67;13.67;;;;;18.85;51.60;101113.97;5078154;27;45547;-72
2023/05/21 00:58:56;;;;;;;;;14.67;11.67;;;;;18.80;51.72;101114.09;5077074;27;45474;-73
2023/05/21 01:01:24;;;;;;;;;12.67;12.67;;;;;18.82;51.61;101119.38;5076194;28;46108;-71
2023/05/21 01:03:51;;;;;;;;;14.67;13.33;;;;;18.85;51.73;101130.75;5057205;28;45305;-73
2023/05/21 01:06:17;;;;;;;;;19.67;15.33;;;;;18.80;51.75;101115.88;5074140;28;45585;-71
2023/05/21 01:08:42;;;;;;;;;15.00;13.33;;;;;18.73;51.83;101116.91;5055085;28;45520;-71
2023/05/21 01:11:09;;;;;;;;;16.67;13.67;;;;;18.77;51.80;101124.78;5073456;28;45819;-69
2023/05/21 01:13:39;;;;;;;;;15.67;13.33;;;;;18.76;51.97;101119.47;5057070;28;45520;-73
2023/05/21 01:16:07;;;;;;;;;13.33;12.33;;;;;18.58;52.14;101087.22;5077211;28;45521;-74
2023/05/21 01:18:34;;;;;;;;;13.67;12.33;;;;;18.72;52.46;101109.84;5077066;28;45431;-74
2023/05/21 01:21:04;;;;;;;;;14.00;11.67;;;;;18.75;52.21;101125.72;5077463;27;46345;-70
2023/05/21 01:23:29;;;;;;;;;19.00;14.67;;;;;18.71;51.95;101126.69;5080833;28;45453;-65
2023/05/21 01:25:55;;;;;;;;;17.33;16.33;;;;;18.69;52.24;101118.75;5058844;28;45366;-69
2023/05/21 01:28:21;;;;;;;;;19.33;14.00;;;;;18.61;51.91;101121.63;5058877;28;45484;-72
2023/05/21 01:30:47;;;;;;;;;16.33;14.67;;;;;18.70;52.44;101141.75;5076664;27;46147;-73
2023/05/21 01:33:19;;;;;;;;;15.67;13.00;;;;;18.62;52.27;101123.34;5058451;28;45803;-72
2023/05/21 01:35:51;;;;;;;;;13.67;13.67;;;;;18.62;52.50;101126.00;5077029;28;45861;-69
2023/05/21 01:38:23;;;;;;;;;14.33;14.33;;;;;18.63;52.35;101130.41;5076972;28;45362;-74
2023/05/21 01:40:57;;;;;;;;;14.33;13.33;;;;;18.62;52.49;101126.00;5077810;28;46724;-73
2023/05/21 01:43:26;;;;;;;;;15.33;12.67;;;;;18.61;52.46;101126.94;5078224;28;45378;-72
2023/05/21 01:45:55;;;;;;;;;18.00;13.67;;;;;18.59;52.68;101126.09;5076644;28;45557;-72
2023/05/21 01:48:23;;;;;;;;;17.33;16.00;;;;;18.55;52.55;101120.91;5058473;28;45908;-74
2023/05/21 01:50:49;;;;;;;;;14.67;13.33;;;;;18.53;52.48;101114.75;5076654;28;45624;-70
2023/05/21 01:53:16;;;;;;;;;18.67;14.33;;;;;18.52;53.05;101123.63;5075947;28;45497;-68
2023/05/21 01:55:42;;;;;;;;;13.00;13.00;;;;;18.48;52.88;101112.22;5078623;28;45543;-72
2023/05/21 01:58:08;;;;;;;;;14.00;11.67;;;;;18.46;53.00;101124.66;5080780;28;45500;-69
2023/05/21 02:00:36;;;;;;;;;19.33;15.00;;;;;18.44;52.75;101118.53;5080377;28;46705;-65
2023/05/21 02:03:01;;;;;;;;;14.67;13.67;;;;;18.46;52.83;101124.66;5080110;28;45583;-67
2023/05/21 02:05:27;;;;;;;;;14.33;14.33;;;;;18.47;53.02;101128.19;5079728;27;45557;-69
2023/05/21 02:07:53;;;;;;;;;23.67;19.00;;;;;18.46;53.13;101126.41;5076408;28;45355;-72
2023/05/21 02:10:19;;;;;;;;;15.33;15.33;;;;;18.41;53.13;101127.44;5058472;28;45405;-72
2023/05/21 02:12:45;;;;;;;;;19.33;17.33;;;;;18.29;53.05;101110.94;5076544;28;45705;-71
2023/05/21 02:15:12;;;;;;;;;17.33;15.67;;;;;18.30;53.22;101118.84;5076942;28;45411;-66
2023/05/21 02:17:39;;;;;;;;;22.33;16.67;;;;;18.30;53.29;101112.69;5076804;27;45391;-67
2023/05/21 02:20:12;;;;;;;;;19.00;18.33;;;;;18.23;53.44;101110.16;5076064;27;45722;-71
2023/05/21 02:22:43;;;;;;;;;21.67;18.00;;;;;18.30;53.48;101132.09;5075818;28;45437;-66
2023/05/21 02:25:10;;;;;;;;;15.33;13.33;;;;;18.29;53.61;101130.34;5057828;28;45416;-66
2023/05/21 02:27:37;;;;;;;;;14.33;14.33;;;;;18.25;53.30;101127.81;5076517;27;45303;-68
2023/05/21 02:30:07;;;;;;;;;21.00;17.33;;;;;18.25;53.44;101128.69;5079773;28;46207;-68
2023/05/21 02:32:33;;;;;;;;;13.67;13.00;;;;;18.25;53.54;101125.16;5076179;28;45508;-66
2023/05/21 02:35:03;;;;;;;;;19.00;17.00;;;;;18.22;53.63;101119.03;5077679;28;45423;-66
2023/05/21 02:37:32;;;;;;;;;16.67;16.67;;;;;18.26;53.54;101127.78;5080213;28;45449;-69
2023/05/21 02:39:59;;;;;;;;;18.67;16.00;;;;;18.26;53.57;101132.22;5061735;28;46845;-64
2023/05/21 02:42:25;;;;;;;;;19.00;15.33;;;;;18.25;53.70;101126.06;5058051;28;45504;-64
2023/05/21 02:44:51;;;;;;;;;19.67;16.33;;;;;18.22;53.90;101129.66;5075730;28;45826;-68
2023/05/21 02:47:22;;;;;;;;;15.67;14.33;;;;;18.18;53.63;101112.06;5079153;28;45362;-68
2023/05/21 02:49:49;;;;;;;;;17.67;15.00;;;;;18.21;54.00;101117.28;5075142;28;45521;-72
2023/05/21 02:52:17;;;;;;;;;19.00;16.67;;;;;18.21;53.75;101125.22;5075386;28;45831;-67
2023/05/21 02:54:43;;;;;;;;;17.33;14.67;;;;;18.19;53.79;101121.75;5075666;28;45718;-66
2023/05/21 02:57:09;;;;;;;;;19.33;14.67;;;;;18.21;54.15;101119.06;5076108;27;45541;-67
2023/05/21 02:59:34;;;;;;;;;20.33;17.33;;;;;18.19;54.06;101128.84;5058228;28;47481;-66
2023/05/21 03:02:00;;;;;;;;;19.00;17.33;;;;;18.17;54.00;101123.56;5061762;28;45488;-68
2023/05/21 03:04:27;;;;;;;;;20.33;19.00;;;;;18.16;54.17;101131.56;5061789;28;45442;-66
2023/05/21 03:06:54;;;;;;;;;17.00;16.33;;;;;18.13;53.96;101129.00;5080453;28;45459;-72
2023/05/21 03:09:20;;;;;;;;;16.67;15.67;;;;;18.09;53.90;101124.66;5057721;28;45474;-74
2023/05/21 03:11:46;;;;;;;;;19.33;17.00;;;;;18.02;54.06;101115.97;5075399;27;45703;-68
2023/05/21 03:14:12;;;;;;;;;23.67;19.67;;;;;18.12;54.13;101132.53;5076093;27;45508;-67
2023/05/21 03:16:40;;;;;;;;;25.33;19.33;;;;;18.09;54.19;101127.31;5077948;28;45393;-70
2023/05/21 03:19:06;;;;;;;;;17.33;16.00;;;;;18.10;54.09;101132.56;5075073;27;45480;-73
2023/05/21 03:21:32;;;;;;;;;18.00;17.33;;;;;18.09;54.46;101127.31;5056986;28;45663;-71
2023/05/21 03:23:59;;;;;;;;;20.33;20.33;;;;;18.04;54.28;101131.84;5075317;28;45482;-71
2023/05/21 03:26:28;;;;;;;;;21.67;18.67;;;;;18.02;54.41;101131.88;5057476;28;45552;-68
2023/05/21 03:28:54;;;;;;;;;18.50;16.00;;;;;17.99;54.36;101130.16;5056167;28;48047;-72
2023/05/21 03:31:20;;;;;;;;;16.33;16.33;;;;;17.97;54.38;101136.41;5074957;28;45411;-73
2023/05/21 03:33:46;;;;;;;;;24.00;19.67;;;;;17.91;54.57;101140.03;5056817;28;45469;-71
2023/05/21 03:36:12;;;;;;;;;22.33;17.67;;;;;17.93;54.55;101143.53;5074808;28;45461;-71
2023/05/21 03:38:37;;;;;;;;;18.67;15.67;;;;;17.86;54.57;101127.81;5074806;28;45456;-71
2023/05/21 03:41:03;;;;;;;;;21.00;20.33;;;;;17.90;54.81;101140.09;5074940;27;45435;-71
2023/05/21 03:43:28;;;;;;;;;23.67;22.67;;;;;17.81;54.71;101133.22;5076396;27;45620;-67
2023/05/21 03:45:55;;;;;;;;;21.67;18.33;;;;;17.81;54.53;101143.81;5076602;28;45469;-64
2023/05/21 03:48:20;;;;;;;;;20.67;20.67;;;;;17.82;54.46;101148.22;5057892;28;47428;-66
2023/05/21 03:50:46;;;;;;;;;27.67;20.33;;;;;17.69;54.88;101122.84;5056455;28;45684;-68
2023/05/21 03:53:12;;;;;;;;;20.00;17.00;;;;;17.80;55.00;101147.34;5060191;28;45626;-65
2023/05/21 03:55:38;;;;;;;;;24.33;20.00;;;;;17.74;55.08;101137.72;5075603;28;46082;-67
2023/05/21 03:58:04;;;;;;;;;20.00;16.33;;;;;17.78;54.79;101143.84;5074991;28;46409;-68
2023/05/21 04:00:31;;;;;;;;;23.00;21.67;;;;;17.79;55.25;101145.59;5075302;28;45750;-66
2023/05/21 04:02:57;;;;;;;;;20.33;20.33;;;;;17.67;55.06;101136.13;5075600;27;45735;-65
2023/05/21 04:05:23;;;;;;;;;24.00;19.33;;;;;17.73;54.97;101148.38;5074382;28;46054;-70
2023/05/21 04:07:48;;;;;;;;;23.67;21.67;;;;;17.74;54.99;101150.97;5056277;28;45556;-69
2023/05/21 04:10:14;;;;;;;;;30.00;24.33;;;;;17.79;55.20;101156.19;5078060;27;45405;-68
2023/05/21 04:12:40;;;;;;;;;28.00;20.67;;;;;17.75;55.11;101158.03;5078864;28;45360;-68
2023/05/21 04:15:06;;;;;;;;;23.00;18.67;;;;;17.70;55.10;101149.31;5058970;28;45421;-69
2023/05/21 04:17:33;;;;;;;;;20.33;18.33;;;;;17.70;54.92;101146.66;5055899;28;46126;-70
2023/05/21 04:19:59;;;;;;;;;20.33;20.33;;;;;17.71;55.35;101150.19;5077375;28;45310;-68
2023/05/21 04:22:25;;;;;;;;;20.00;16.33;;;;;17.73;55.27;101162.50;5078646;28;45389;-69
2023/05/21 04:24:53;;;;;;;;;23.33;20.33;;;;;17.65;55.57;101148.53;5061276;28;45470;-72
2023/05/21 04:27:22;;;;;;;;;22.00;19.67;;;;;17.64;55.21;101154.72;5079805;28;46074;-69
2023/05/21 04:29:49;;;;;;;;;24.00;20.67;;;;;17.63;55.43;101152.09;5077036;28;45441;-67
2023/05/21 04:32:16;;;;;;;;;23.67;20.67;;;;;17.63;55.37;101160.94;5074899;27;45804;-67
2023/05/21 04:34:42;;;;;;;;;25.33;20.33;;;;;17.64;55.39;101164.47;5059610;28;45456;-70
2023/05/21 04:37:08;;;;;;;;;21.33;20.00;;;;;17.72;55.38;101167.81;5055733;28;47671;-67
2023/05/21 04:39:34;;;;;;;;;27.67;22.33;;;;;17.72;55.41;101163.38;5074812;28;45354;-70
2023/05/21 04:42:01;;;;;;;;;26.00;23.67;;;;;17.74;54.79;101161.56;5078419;27;45449;-69
2023/05/21 04:44:28;;;;;;;;;23.33;21.33;;;;;17.74;55.30;101169.53;5078517;27;45306;-68
2023/05/21 04:46:53;;;;;;;;;28.33;23.33;;;;;17.74;55.19;101172.16;5078439;28;46621;-68
2023/05/21 04:49:22;;;;;;;;;26.67;21.33;;;;;17.75;55.05;101181.88;5077870;28;45443;-71
2023/05/21 04:51:51;;;;;;;;;25.67;19.67;;;;;17.65;55.33;101168.84;5077846;28;45385;-70
2023/05/21 04:54:16;;;;;;;;;23.33;21.00;;;;;17.74;55.36;101187.19;5074648;27;45914;-70
2023/05/21 04:56:43;;;;;;;;;19.33;19.00;;;;;17.69;55.42;101178.47;5077938;28;45668;-70
2023/05/21 04:59:08;;;;;;;;;24.33;22.00;;;;;17.73;55.33;101183.69;5073462;28;45669;-69
2023/05/21 05:01:37;;;;;;;;;20.00;19.67;;;;;17.76;55.34;101180.97;5073584;28;45328;-68
2023/05/21 05:04:03;;;;;;;;;21.67;18.67;;;;;17.79;55.07;101172.06;5055922;28;45496;-72
2023/05/21 05:06:28;;;;;;;;;17.67;17.33;;;;;17.80;55.25;101179.13;5073719;28;45736;-66
2023/05/21 05:08:54;;;;;;;;;22.33;19.33;;;;;17.77;55.02;101171.22;5073697;28;45465;-65
2023/05/21 05:11:19;;;;;;;;;24.67;22.67;;;;;17.82;54.97;101173.81;5055855;28;45868;-66
2023/05/21 05:13:45;;;;;;;;;23.33;21.33;;;;;17.78;54.95;101173.00;5073909;28;45355;-67
2023/05/21 05:16:11;;;;;;;;;26.67;22.67;;;;;17.80;55.02;101181.78;5073187;28;45534;-74
2023/05/21 05:18:37;;;;;;;;;25.00;21.67;;;;;17.78;54.79;101168.56;5055172;28;45324;-68
2023/05/21 05:21:02;;;;;;;;;28.00;23.67;;;;;17.92;54.94;101180.69;5059209;28;45378;-73
2023/05/21 05:23:28;;;;;;;;;23.33;20.00;;;;;17.96;54.69;101179.69;5076415;28;45579;-74
2023/05/21 05:25:54;;;;;;;;;22.67;18.67;;;;;18.02;54.40;101171.63;5073530;28;45461;-68
2023/05/21 05:28:19;;;;;;;;;24.00;22.00;;;;;18.02;54.50;101168.97;5055412;28;45786;-73
2023/05/21 05:30:45;;;;;;;;;20.00;18.00;;;;;18.11;54.27;101168.78;5073559;28;45362;-68
2023/05/21 05:33:10;;;;;;;;;22.33;20.00;;;;;18.19;54.13;101180.06;5073430;27;45444;-66
2023/05/21 05:35:36;;;;;;;;;17.67;15.00;;;;;18.25;53.99;101179.06;5076920;28;45383;-73
2023/05/21 05:38:02;;;;;;;;;20.67;18.00;;;;;18.29;53.83;101177.22;5057882;28;45987;-67
2023/05/21 05:40:27;;;;;;;;;23.33;19.00;;;;;18.36;53.42;101178.81;5055418;28;45435;-68
2023/05/21 05:42:53;;;;;;;;;28.67;24.33;;;;;18.39;53.81;101178.75;5075606;28;45565;-65
2023/05/21 05:45:19;;;;;;;;;23.33;20.67;;;;;18.29;53.41;101153.34;5074229;27;46205;-70
2023/05/21 05:47:45;;;;;;;;;36.00;26.33;;;;;18.44;53.30;101180.38;5073372;28;45533;-71
2023/05/21 05:50:10;;;;;;;;;19.67;19.67;;;;;18.19;53.14;101128.84;5058620;28;45613;-65
2023/05/21 05:52:36;;;;;;;;;25.33;22.33;;;;;18.50;53.20;101174.06;5077427;27;45586;-75
2023/05/21 05:55:02;;;;;;;;;23.00;20.67;;;;;18.48;52.94;101148.47;5075802;28;45336;-65
2023/05/21 05:57:27;;;;;;;;;31.00;26.00;;;;;18.53;52.90;101157.19;5073576;28;46243;-68
2023/05/21 05:59:53;;;;;;;;;29.00;26.00;;;;;18.56;52.80;101158.00;5055636;28;45485;-69
2023/05/21 06:02:18;;;;;;;;;26.33;24.00;;;;;18.63;52.91;101172.88;5076171;28;45478;-69
2023/05/21 06:04:44;;;;;;;;;24.33;21.33;;;;;18.63;52.80;101164.03;5061098;28;46991;-69
2023/05/21 06:07:10;;;;;;;;;27.33;26.00;;;;;18.71;52.66;101171.81;5075016;27;45572;-66
2023/05/21 06:09:37;;;;;;;;;31.50;28.75;;;;;18.61;52.52;101150.81;5057712;28;45478;-67
2023/05/21 06:12:04;;;;;;;;;30.67;26.00;;;;;18.79;52.30;101169.84;5076588;27;45377;-64
2023/05/21 06:14:30;;;;;;;;;25.33;23.33;;;;;18.78;52.27;101158.38;5057380;28;46404;-66
2023/05/21 06:16:55;;;;;;;;;28.67;23.67;;;;;18.87;52.30;101167.88;5075819;28;45520;-67
2023/05/21 06:19:21;;;;;;;;;22.33;21.67;;;;;18.89;52.16;101162.53;5057630;27;45477;-70
2023/05/21 06:21:47;;;;;;;;;30.33;26.33;;;;;18.95;51.84;101162.38;5077274;28;45348;-73
2023/05/21 06:24:12;;;;;;;;;30.00;26.50;;;;;18.99;51.54;101158.75;5080640;28;45549;-68
2023/05/21 06:26:38;;;;;;;;;28.00;27.33;;;;;19.08;51.67;101185.03;5061956;28;45506;-70
2023/05/21 06:29:03;;;;;;;;;29.33;24.00;;;;;19.00;51.49;101158.69;5079866;27;45460;-68
2023/05/21 06:31:31;;;;;;;;;26.67;25.00;;;;;19.14;51.53;101190.19;5080609;27;45398;-70
2023/05/21 06:33:57;;;;;;;;;23.00;21.67;;;;;19.20;51.56;101194.47;5057027;27;46337;-67
2023/05/21 06:36:25;;;;;;;;;28.33;26.00;;;;;19.28;51.02;101189.81;5077247;28;45482;-68
2023/05/21 06:38:51;;;;;;;;;24.67;19.33;;;;;19.24;51.13;101178.41;5080537;28;45394;-72
2023/05/21 06:41:16;;;;;;;;;21.67;20.67;;;;;19.33;51.17;101174.63;5079936;27;45492;-67
2023/05/21 06:43:42;;;;;;;;;22.67;21.33;;;;;19.33;50.68;101168.44;5057610;28;47043;-65
2023/05/21 06:46:07;;;;;;;;;22.33;19.33;;;;;19.37;50.87;101173.63;5075294;28;45642;-75
2023/05/21 06:48:32;;;;;;;;;26.33;24.00;;;;;19.41;50.57;101174.41;5080160;28;45477;-68
2023/05/21 06:50:58;;;;;;;;;29.00;23.67;;;;;19.41;50.83;101171.75;5079604;27;45406;-66
2023/05/21 06:53:23;;;;;;;;;29.33;26.33;;;;;19.36;50.37;101157.72;5079638;28;45653;-66
2023/05/21 06:55:52;;;;;;;;;23.33;21.33;;;;;19.49;50.64;101169.75;5079953;28;45314;-71
2023/05/21 06:58:18;;;;;;;;;26.00;24.33;;;;;19.60;50.16;101177.41;5059302;28;45566;-69
2023/05/21 07:00:43;;;;;;;;;31.00;25.67;;;;;19.59;50.29;101181.88;5075080;28;45579;-70
2023/05/21 07:03:08;;;;;;;;;24.00;21.67;;;;;19.59;50.09;101171.25;5075484;28;46359;-65
2023/05/21 07:05:34;;;;;;;;;25.33;23.33;;;;;19.70;50.02;101174.50;5075591;28;45394;-70
2023/05/21 07:08:00;;;;;;;;;26.33;21.67;;;;;19.80;49.49;101183.06;5075661;28;45359;-65
2023/05/21 07:10:26;;;;;;;;;26.00;21.33;;;;;19.89;49.43;101181.94;5077938;27;45575;-69
2023/05/21 07:12:51;;;;;;;;;27.67;27.00;;;;;19.86;49.66;101163.41;5076560;27;45939;-72
2023/05/21 07:15:17;;;;;;;;;32.00;23.00;;;;;19.94;49.42;101174.69;5075155;28;45320;-72
2023/05/21 07:17:43;;;;;;;;;20.67;17.00;;;;;20.05;49.36;101188.53;5075041;27;45472;-71
2023/05/21 07:20:10;;;;;;;;;21.00;19.67;;;;;20.11;49.08;101182.16;5057518;28;45374;-70
2023/05/21 07:22:40;;;;;;;;;27.33;26.33;;;;;20.08;48.96;101176.94;5056520;28;46767;-72
2023/05/21 07:25:06;;;;;;;;;32.33;23.00;;;;;20.12;48.50;101173.25;5059224;28;45516;-70
2023/05/21 07:27:32;;;;;;;;;28.33;27.00;;;;;20.17;48.85;101183.75;5061342;28;45932;-72
2023/05/21 07:29:57;;;;;;;;;30.67;26.67;;;;;19.96;48.72;101159.56;5057593;28;45395;-65
2023/05/21 07:32:23;;;;;;;;;30.33;23.67;;;;;20.18;48.86;101189.03;5056191;28;46850;-73
2023/05/21 07:34:48;;;;;;;;;27.67;25.33;;;;;20.26;48.71;101189.69;5074624;28;45717;-73
2023/05/21 07:37:14;;;;;;;;;28.67;27.67;;;;;20.36;48.45;101194.69;5074901;27;45894;-71
2023/05/21 07:39:39;;;;;;;;;27.67;27.00;;;;;20.32;48.51;101176.16;5075408;28;45648;-68
2023/05/21 07:42:05;;;;;;;;;24.00;21.67;;;;;20.42;48.27;101179.41;5056673;28;47637;-69
2023/05/21 07:44:30;;;;;;;;;5.33;5.33;;;;;20.41;48.12;101169.69;5075257;27;45401;-73
2023/05/21 07:46:57;;;;;;;;;28.33;23.00;;;;;20.57;48.17;101185.19;5075592;28;46120;-68
2023/05/21 07:49:22;;;;;;;;;27.00;27.00;;;;;20.58;47.80;101181.63;5075508;28;45443;-73
2023/05/21 07:51:48;;;;;;;;;31.33;30.33;;;;;20.53;47.82;101171.97;5075659;28;45465;-70
2023/05/21 07:54:14;;;;;;;;;31.00;27.33;;;;;20.61;47.59;101174.41;5077062;28;45527;-70
2023/05/21 07:56:39;;;;;;;;;25.33;21.33;;;;;20.51;47.92;101175.59;5075889;28;45387;-70
2023/05/21 07:59:05;;;;;;;;;28.00;24.67;;;;;20.55;47.54;101182.56;5075430;27;45396;-68
2023/05/21 08:01:31;;;;;;;;;29.67;23.33;;;;;20.62;47.43;101167.28;5074495;28;46041;-69
2023/05/21 08:04:00;;;;;;;;;25.67;23.00;;;;;20.74;47.03;101174.88;5074602;28;45389;-68
2023/05/21 08:06:26;;;;;;;;;28.33;24.67;;;;;20.82;47.04;101179.94;5074882;28;45387;-68
2023/05/21 08:08:53;;;;;;;;;30.33;29.00;;;;;20.85;47.22;101174.50;5076677;28;45449;-72
2023/05/21 08:11:18;;;;;;;;;30.67;25.33;;;;;20.86;47.09;101181.59;5078355;27;45631;-71
2023/05/21 08:13:44;;;;;;;;;21.33;19.67;;;;;20.95;47.02;101187.47;5078096;28;45290;-70
2023/05/21 08:16:10;;;;;;;;;14.33;13.33;;;;;21.01;46.70;101175.72;5074978;27;45472;-72
2023/05/21 08:18:35;;;;;;;;;22.33;20.33;;;;;21.03;46.81;101165.03;5074792;28;45472;-74
2023/05/21 08:21:01;;;;;;;;;17.67;14.00;;;;;21.08;46.44;101171.06;5056530;28;46236;-71
2023/05/21 08:23:26;;;;;;;;;20.00;18.00;;;;;21.02;46.42;101141.97;5058023;28;45475;-68
2023/05/21 08:25:52;;;;;;;;;21.00;20.00;;;;;21.08;46.36;101155.94;5076100;27;45559;-73
2023/05/21 08:28:18;;;;;;;;;24.00;19.00;;;;;21.06;46.03;101149.81;5055910;28;45422;-75
2023/05/21 08:30:43;;;;;;;;;18.67;17.33;;;;;21.03;46.23;101152.56;5077697;28;46466;-73
2023/05/21 08:33:09;;;;;;;;;18.67;17.67;;;;;21.04;46.31;101143.66;5074191;27;45367;-66
2023/05/21 08:35:34;;;;;;;;;19.00;17.67;;;;;21.00;46.17;101147.38;5074233;27;45769;-72
2023/05/21 08:38:00;;;;;;;;;14.00;12.33;;;;;21.16;46.02;101147.69;5074608;28;45718;-72
2023/05/21 08:40:25;;;;;;;;;17.33;17.33;;;;;21.22;45.80;101144.81;5074269;28;45374;-79
2023/05/21 08:42:51;;;;;;;;;19.33;16.67;;;;;21.28;45.84;101154.38;5074593;28;45480;-75
2023/05/21 08:45:21;;;;;;;;;17.67;16.67;;;;;21.29;45.47;101161.44;5074863;28;45534;-69
2023/05/21 08:47:47;;;;;;;;;17.33;16.00;;;;;21.27;45.46;101137.50;5074085;27;45418;-67
2023/05/21 08:50:18;;;;;;;;;17.33;13.67;;;;;21.44;45.87;101162.72;5073728;28;45972;-77
2023/05/21 08:52:43;;;;;;;;;15.33;15.00;;;;;21.44;45.24;101152.91;5055847;28;45409;-75
2023/05/21 08:55:09;;;;;;;;;18.33;15.67;;;;;21.47;45.37;101152.78;5074024;28;45403;-76
2023/05/21 08:57:35;;;;;;;;;30.00;23.67;;;;;21.46;44.82;101145.75;5074217;28;45384;-79
2023/05/21 09:00:03;;;;;;;;;21.33;17.67;;;;;21.54;45.55;101145.44;5074326;27;45324;-78
2023/05/21 09:02:32;;;;;;;;;18.33;15.00;;;;;21.59;45.92;101138.16;5077880;28;45350;-74
2023/05/21 09:05:02;;;;;;;;;15.67;15.67;;;;;21.73;45.82;101150.97;5078384;28;45576;-75
2023/05/21 09:07:29;;;;;;;;;13.33;13.33;;;;;21.81;45.60;101151.56;5075674;28;45288;-70
2023/05/21 09:09:56;;;;;;;;;11.67;9.33;;;;;21.85;47.21;101121.16;5055778;28;45448;-74
2023/05/21 09:12:24;;;;;;;;;17.00;14.00;;;;;22.01;46.43;101140.09;5055008;28;45716;-73
2023/05/21 09:14:50;;;;;;;;;22.67;16.00;;;;;21.93;44.24;101118.22;5056419;28;45518;-77
2023/05/21 09:17:16;;;;;;;;;25.67;23.00;;;;;22.04;45.51;101147.97;5077889;28;45481;-69
2023/05/21 09:20:09;;;;;;;;;25.00;19.67;;;;;22.16;44.70;101152.84;5077536;28;46127;-68
2023/05/21 09:22:46;;;;;;;;;16.33;14.67;;;;;22.19;44.95;101157.19;5073626;27;45374;-67
2023/05/21 09:25:16;;;;;;;;;14.33;13.00;;;;;22.30;45.99;101149.63;5074831;28;45395;-73
2023/05/21 09:27:42;;;;;;;;;29.00;24.67;;;;;22.23;43.37;101149.03;5076504;28;45714;-69
2023/05/21 09:30:13;;;;;;;;;19.67;18.33;;;;;22.05;46.16;101146.22;5054878;28;47008;-73
2023/05/21 09:32:40;;;;;;;;;18.00;16.67;;;;;21.96;46.14;101129.63;5073843;28;45406;-71
2023/05/21 09:35:12;;;;;;;;;19.33;15.33;;;;;22.12;47.07;101147.69;5060472;28;45561;-78
2023/05/21 09:37:48;;;;;;;;;19.67;18.00;;;;;22.24;45.75;101149.91;5081494;28;45450;-73
2023/05/21 09:40:15;;;;;;;;;21.50;17.50;;;;;22.31;44.24;101145.19;5062880;28;48383;-74
2023/05/21 09:42:45;;;;;;;;;16.67;16.00;;;;;22.31;44.69;101131.84;5078559;28;45397;-72
2023/05/21 09:45:11;;;;;;;;;23.33;21.67;;;;;22.33;44.07;101144.19;5077530;28;45553;-73
2023/05/21 09:47:42;;;;;;;;;17.33;16.00;;;;;22.27;46.27;101112.41;5081017;28;45389;-75
2023/05/21 09:50:17;;;;;;;;;25.67;22.33;;;;;22.54;45.21;101146.91;5081296;28;45351;-75
2023/05/21 09:52:42;;;;;;;;;20.67;19.33;;;;;22.49;46.87;101138.22;5080531;28;45330;-71
2023/05/21 09:55:12;;;;;;;;;29.33;22.33;;;;;22.48;44.98;101113.34;5081206;28;45407;-66
2023/05/21 09:57:48;;;;;;;;;28.00;19.00;;;;;22.67;46.38;101142.81;5081580;28;45334;-72
2023/05/21 10:00:18;;;;;;;;;18.33;18.00;;;;;22.74;47.09;101128.25;5058516;27;46918;-68
2023/05/21 10:02:47;;;;;;;;;19.00;18.00;;;;;22.85;46.46;101127.78;5076079;28;45635;-66
2023/05/21 10:05:15;;;;;;;;;26.00;21.33;;;;;22.93;45.88;101111.44;5076395;28;45490;-71
2023/05/21 10:08:01;;;;;;;;;27.33;24.67;;;;;22.85;44.66;101101.06;5076978;28;45319;-65
2023/05/21 10:10:28;;;;;;;;;25.33;21.67;;;;;22.95;44.52;101107.78;5076700;28;46523;-65
2023/05/21 10:12:59;;;;;;;;;64.50;50.00;;;;;23.02;43.36;101116.44;5076053;28;45499;-65
2023/05/21 10:15:30;;;;;;;;;52.00;42.50;;;;;23.04;44.02;101111.84;5058898;28;46095;-69
2023/05/21 10:17:57;;;;;;;;;38.33;33.33;;;;;23.19;44.10;101113.88;5076781;28;45401;-78
2023/05/21 10:20:23;;;;;;;;;24.33;23.33;;;;;23.25;45.00;101102.03;5076885;28;45285;-78
2023/05/21 10:22:49;;;;;;;;;25.00;21.33;;;;;23.47;42.41;101109.97;5058235;27;45264;-75
2023/05/21 10:25:16;;;;;;;;;26.33;24.33;;;;;23.45;42.58;101099.31;5079681;27;45438;-83
2023/05/21 10:27:42;;;;;;;;;19.67;18.67;;;;;23.46;42.38;101111.75;5081447;28;45397;-79
2023/05/21 10:30:08;;;;;;;;;23.00;22.00;;;;;23.53;41.99;101117.69;5078882;28;46274;-81
2023/05/21 10:32:34;;;;;;;;;20.00;19.00;;;;;23.53;41.82;101123.03;5076582;28;45453;-79
2023/05/21 10:35:01;;;;;;;;;15.67;15.00;;;;;23.54;41.79;101105.16;5079689;28;45397;-75
2023/05/21 10:37:27;;;;;;;;;20.67;20.33;;;;;23.63;41.64;101108.31;5077012;27;45522;-73
2023/05/21 10:39:54;;;;;;;;;22.67;18.33;;;;;23.61;41.31;101095.94;5058416;28;47266;-83
2023/05/21 10:42:23;;;;;;;;;31.67;29.67;;;;;23.73;41.16;101102.50;5082620;28;45292;-75
2023/05/21 10:45:27;;;;;;;;;21.00;20.33;;;;;23.77;41.35;101107.66;5081274;28;45416;-81
2023/05/21 10:48:12;;;;;;;;;19.33;17.33;;;;;23.81;40.91;101092.38;5077482;27;45410;-83
2023/05/21 10:50:52;;;;;;;;;17.33;16.00;;;;;23.97;41.86;101101.38;5079380;28;45741;-78
2023/05/21 10:53:44;;;;;;;;;20.00;18.00;;;;;24.08;42.92;101106.19;5075866;28;45885;-79
2023/05/21 10:56:18;;;;;;;;;22.67;18.67;;;;;24.11;42.63;101096.22;5067571;27;45523;-80
2023/05/21 10:59:02;;;;;;;;;24.67;21.33;;;;;24.10;40.67;101090.94;5080905;28;45354;-78
2023/05/21 11:01:32;;;;;;;;;21.33;21.33;;;;;24.00;41.29;101103.91;5078325;28;45486;-71
2023/05/21 11:03:58;;;;;;;;;23.67;20.33;;;;;23.82;41.23;101070.00;5075972;28;45430;-73
2023/05/21 11:06:25;;;;;;;;;23.33;17.67;;;;;23.98;40.93;101097.75;5060405;28;45515;-76
2023/05/21 11:08:54;;;;;;;;;18.00;17.33;;;;;24.03;41.62;101098.41;5076768;28;45495;-77